sensor_id;sensor_type;location;lat;lon;timestamp;pressure;altitude;pressure_sealevel;temperature;humidity
51321;BME280;38732;49.556;6.286;2023-03-26T00:01:36;99057.81;;;10.69;90.97
51321;BME280;38732;49.556;6.286;2023-03-26T00:04:05;99056.91;;;10.74;91.36
51321;BME280;38732;49.556;6.286;2023-03-26T00:06:36;99055.19;;;10.75;91.55
51321;BME280;38732;49.556;6.286;2023-03-26T00:09:07;99058.63;;;10.77;91.31
51321;BME280;38732;49.556;6.286;2023-03-26T00:11:35;99049.19;;;10.76;89.89
51321;BME280;38732;49.556;6.286;2023-03-26T00:14:04;99047.47;;;10.73;90.39
51321;BME280;38732;49.556;6.286;2023-03-26T00:16:32;99051.78;;;10.71;90.29
51321;BME280;38732;49.556;6.286;2023-03-26T00:19:01;99036.25;;;10.76;90.03
51321;BME280;38732;49.556;6.286;2023-03-26T00:21:30;99043.16;;;10.74;90.79
51321;BME280;38732;49.556;6.286;2023-03-26T00:24:05;99038.84;;;10.73;91.00
51321;BME280;38732;49.556;6.286;2023-03-26T00:26:35;99049.19;;;10.68;90.13
51321;BME280;38732;49.556;6.286;2023-03-26T00:29:04;99037.97;;;10.75;89.93
51321;BME280;38732;49.556;6.286;2023-03-26T00:31:33;99045.78;;;10.69;88.90
51321;BME280;38732;49.556;6.286;2023-03-26T00:34:01;99027.59;;;10.80;89.45
51321;BME280;38732;49.556;6.286;2023-03-26T00:36:30;99019.03;;;10.76;89.24
51321;BME280;38732;49.556;6.286;2023-03-26T00:38:58;99019.91;;;10.72;89.45
51321;BME280;38732;49.556;6.286;2023-03-26T00:41:26;99015.59;;;10.73;89.11
51321;BME280;38732;49.556;6.286;2023-03-26T00:43:57;99015.69;;;10.62;89.64
51321;BME280;38732;49.556;6.286;2023-03-26T00:46:27;99007.06;;;10.65;89.68
51321;BME280;38732;49.556;6.286;2023-03-26T00:48:56;99014.88;;;10.55;90.63
51321;BME280;38732;49.556;6.286;2023-03-26T00:51:25;98999.38;;;10.55;90.51
51321;BME280;38732;49.556;6.286;2023-03-26T00:53:54;98994.19;;;10.62;90.06
51321;BME280;38732;49.556;6.286;2023-03-26T00:56:24;98989.94;;;10.56;89.80
51321;BME280;38732;49.556;6.286;2023-03-26T00:58:52;98980.50;;;10.53;90.47
51321;BME280;38732;49.556;6.286;2023-03-26T01:01:22;98983.94;;;10.52;89.42
51321;BME280;38732;49.556;6.286;2023-03-26T01:03:53;98980.50;;;10.52;90.59
51321;BME280;38732;49.556;6.286;2023-03-26T01:06:30;98977.91;;;10.53;90.16
51321;BME280;38732;49.556;6.286;2023-03-26T01:09:17;98971.06;;;10.48;90.99
51321;BME280;38732;49.556;6.286;2023-03-26T01:11:47;98968.47;;;10.49;91.06
51321;BME280;38732;49.556;6.286;2023-03-26T01:14:20;98956.38;;;10.56;92.24
51321;BME280;38732;49.556;6.286;2023-03-26T01:16:55;98948.63;;;10.54;91.49
51321;BME280;38732;49.556;6.286;2023-03-26T01:19:32;98949.53;;;10.53;91.17
51321;BME280;38732;49.556;6.286;2023-03-26T01:22:05;98945.22;;;10.52;91.68
51321;BME280;38732;49.556;6.286;2023-03-26T01:24:34;98939.34;;;10.33;91.04
51321;BME280;38732;49.556;6.286;2023-03-26T01:32:49;98929.78;;;10.45;90.93
51321;BME280;38732;49.556;6.286;2023-03-26T01:35:27;98919.47;;;10.43;90.77
51321;BME280;38732;49.556;6.286;2023-03-26T01:43:44;98906.59;;;10.42;91.74
51321;BME280;38732;49.556;6.286;2023-03-26T01:46:14;98898.94;;;10.31;90.82
51321;BME280;38732;49.556;6.286;2023-03-26T01:48:44;98898.00;;;10.38;91.67
51321;BME280;38732;49.556;6.286;2023-03-26T01:51:28;98887.69;;;10.41;90.89
51321;BME280;38732;49.556;6.286;2023-03-26T01:53:57;98881.59;;;10.48;91.00
51321;BME280;38732;49.556;6.286;2023-03-26T01:56:34;98876.41;;;10.50;91.52
51321;BME280;38732;49.556;6.286;2023-03-26T01:59:24;98874.59;;;10.60;92.48
51321;BME280;38732;49.556;6.286;2023-03-26T02:02:11;98866.88;;;10.56;92.48
51321;BME280;38732;49.556;6.286;2023-03-26T02:05:01;98854.78;;;10.62;93.58
51321;BME280;38732;49.556;6.286;2023-03-26T02:07:43;98849.63;;;10.62;92.91
51321;BME280;38732;49.556;6.286;2023-03-26T02:10:19;98844.41;;;10.65;93.46
51321;BME280;38732;49.556;6.286;2023-03-26T02:12:51;98834.84;;;10.73;92.58
51321;BME280;38732;49.556;6.286;2023-03-26T02:15:20;98840.06;;;10.68;94.31
51321;BME280;38732;49.556;6.286;2023-03-26T02:17:48;98829.75;;;10.68;90.89
51321;BME280;38732;49.556;6.286;2023-03-26T02:20:17;98826.44;;;10.57;90.79
51321;BME280;38732;49.556;6.286;2023-03-26T02:22:46;98828.97;;;10.60;90.79
51321;BME280;38732;49.556;6.286;2023-03-26T02:25:17;98824.69;;;10.59;91.49
51321;BME280;38732;49.556;6.286;2023-03-26T02:27:48;98818.59;;;10.66;90.01
51321;BME280;38732;49.556;6.286;2023-03-26T02:30:22;98811.72;;;10.65;89.47
51321;BME280;38732;49.556;6.286;2023-03-26T02:32:52;98798.81;;;10.65;91.49
51321;BME280;38732;49.556;6.286;2023-03-26T02:35:20;98789.31;;;10.66;91.18
51321;BME280;38732;49.556;6.286;2023-03-26T02:37:49;98791.06;;;10.67;91.72
51321;BME280;38732;49.556;6.286;2023-03-26T02:40:17;98776.31;;;10.75;92.76
51321;BME280;38732;49.556;6.286;2023-03-26T02:42:46;98774.63;;;10.72;91.62
51321;BME280;38732;49.556;6.286;2023-03-26T02:45:14;98772.88;;;10.74;91.67
51321;BME280;38732;49.556;6.286;2023-03-26T02:47:43;98769.41;;;10.78;91.28
51321;BME280;38732;49.556;6.286;2023-03-26T02:50:11;98772.13;;;10.63;91.66
51321;BME280;38732;49.556;6.286;2023-03-26T02:52:39;98758.38;;;10.63;90.47
51321;BME280;38732;49.556;6.286;2023-03-26T02:55:08;98754.00;;;10.69;90.98
51321;BME280;38732;49.556;6.286;2023-03-26T02:57:36;98749.66;;;10.73;92.18
51321;BME280;38732;49.556;6.286;2023-03-26T03:00:05;98749.63;;;10.76;91.81
51321;BME280;38732;49.556;6.286;2023-03-26T03:02:33;98746.28;;;10.69;91.69
51321;BME280;38732;49.556;6.286;2023-03-26T03:05:01;98745.41;;;10.69;91.77
51321;BME280;38732;49.556;6.286;2023-03-26T03:07:30;98732.50;;;10.67;91.61
51321;BME280;38732;49.556;6.286;2023-03-26T03:09:58;98727.44;;;10.60;92.42
51321;BME280;38732;49.556;6.286;2023-03-26T03:12:27;98730.72;;;10.72;90.71
51321;BME280;38732;49.556;6.286;2023-03-26T03:14:55;98721.25;;;10.74;90.39
51321;BME280;38732;49.556;6.286;2023-03-26T03:17:23;98723.97;;;10.64;92.71
51321;BME280;38732;49.556;6.286;2023-03-26T03:19:51;98711.06;;;10.64;90.14
51321;BME280;38732;49.556;6.286;2023-03-26T03:22:19;98699.84;;;10.65;91.34
51321;BME280;38732;49.556;6.286;2023-03-26T03:24:48;98692.94;;;10.67;90.86
51321;BME280;38732;49.556;6.286;2023-03-26T03:27:17;98688.56;;;10.72;90.73
51321;BME280;38732;49.556;6.286;2023-03-26T03:29:45;98679.94;;;10.74;92.29
51321;BME280;38732;49.556;6.286;2023-03-26T03:32:14;98682.50;;;10.74;92.09
51321;BME280;38732;49.556;6.286;2023-03-26T03:34:42;98672.97;;;10.81;92.80
51321;BME280;38732;49.556;6.286;2023-03-26T03:37:10;98671.19;;;10.85;92.74
51321;BME280;38732;49.556;6.286;2023-03-26T03:39:38;98653.94;;;10.87;92.43
51321;BME280;38732;49.556;6.286;2023-03-26T03:42:07;98642.72;;;10.89;92.87
51321;BME280;38732;49.556;6.286;2023-03-26T03:44:36;98643.50;;;10.94;92.78
51321;BME280;38732;49.556;6.286;2023-03-26T03:47:04;98631.38;;;10.99;91.16
51321;BME280;38732;49.556;6.286;2023-03-26T03:49:32;98626.25;;;10.96;91.41
51321;BME280;38732;49.556;6.286;2023-03-26T03:52:01;98630.59;;;10.94;90.37
51321;BME280;38732;49.556;6.286;2023-03-26T03:54:29;98618.38;;;11.04;90.22
51321;BME280;38732;49.556;6.286;2023-03-26T03:56:57;98619.28;;;11.00;89.25
51321;BME280;38732;49.556;6.286;2023-03-26T03:59:25;98621.16;;;10.93;88.80
51321;BME280;38732;49.556;6.286;2023-03-26T04:01:53;98619.34;;;10.97;89.88
51321;BME280;38732;49.556;6.286;2023-03-26T04:04:22;98620.19;;;10.97;90.91
51321;BME280;38732;49.556;6.286;2023-03-26T04:06:50;98620.25;;;10.93;90.63
51321;BME280;38732;49.556;6.286;2023-03-26T04:09:19;98615.03;;;10.99;90.82
51321;BME280;38732;49.556;6.286;2023-03-26T04:11:47;98605.66;;;10.92;91.57
51321;BME280;38732;49.556;6.286;2023-03-26T04:14:15;98617.56;;;10.42;93.46
51321;BME280;38732;49.556;6.286;2023-03-26T04:16:43;98593.94;;;10.69;93.98
51321;BME280;38732;49.556;6.286;2023-03-26T04:19:11;98584.28;;;10.82;91.64
51321;BME280;38732;49.556;6.286;2023-03-26T04:21:40;98576.53;;;10.84;91.52
51321;BME280;38732;49.556;6.286;2023-03-26T04:24:08;98580.97;;;10.06;93.50
51321;BME280;38732;49.556;6.286;2023-03-26T04:26:36;98550.78;;;10.79;93.30
51321;BME280;38732;49.556;6.286;2023-03-26T04:29:05;98574.75;;;10.24;94.94
51321;BME280;38732;49.556;6.286;2023-03-26T04:31:35;98566.78;;;10.44;95.15
51321;BME280;38732;49.556;6.286;2023-03-26T04:34:08;98557.31;;;11.00;91.41
51321;BME280;38732;49.556;6.286;2023-03-26T04:36:36;98550.97;;;10.65;91.67
51321;BME280;38732;49.556;6.286;2023-03-26T04:39:05;98544.25;;;11.09;87.44
51321;BME280;38732;49.556;6.286;2023-03-26T04:41:33;98539.09;;;11.08;89.32
51321;BME280;38732;49.556;6.286;2023-03-26T04:44:01;98533.53;;;11.31;88.83
51321;BME280;38732;49.556;6.286;2023-03-26T04:46:29;98525.72;;;11.34;88.21
51321;BME280;38732;49.556;6.286;2023-03-26T04:48:58;98518.00;;;11.32;88.34
51321;BME280;38732;49.556;6.286;2023-03-26T04:51:32;98519.59;;;11.39;89.00
51321;BME280;38732;49.556;6.286;2023-03-26T04:54:03;98513.63;;;11.36;88.81
51321;BME280;38732;49.556;6.286;2023-03-26T04:56:43;98511.97;;;11.33;90.25
51321;BME280;38732;49.556;6.286;2023-03-26T04:59:17;98515.41;;;11.32;90.51
51321;BME280;38732;49.556;6.286;2023-03-26T05:01:45;98514.59;;;11.30;90.92
51321;BME280;38732;49.556;6.286;2023-03-26T05:04:14;98513.81;;;11.27;91.94
51321;BME280;38732;49.556;6.286;2023-03-26T05:06:42;98506.09;;;11.23;92.54
51321;BME280;38732;49.556;6.286;2023-03-26T05:09:10;98500.03;;;11.26;90.98
51321;BME280;38732;49.556;6.286;2023-03-26T05:11:39;98502.69;;;11.21;92.68
51321;BME280;38732;49.556;6.286;2023-03-26T05:14:07;98496.69;;;11.19;93.16
51321;BME280;38732;49.556;6.286;2023-03-26T05:16:36;98490.75;;;11.14;92.42
51321;BME280;38732;49.556;6.286;2023-03-26T05:19:07;98484.75;;;11.12;93.63
51321;BME280;38732;49.556;6.286;2023-03-26T05:21:35;98478.69;;;11.16;94.69
51321;BME280;38732;49.556;6.286;2023-03-26T05:24:03;98470.00;;;11.19;94.03
51321;BME280;38732;49.556;6.286;2023-03-26T05:26:32;98460.75;;;11.07;92.62
51321;BME280;38732;49.556;6.286;2023-03-26T05:29:01;98441.81;;;11.07;93.77
51321;BME280;38732;49.556;6.286;2023-03-26T05:31:29;98445.19;;;11.10;92.10
51321;BME280;38732;49.556;6.286;2023-03-26T05:33:58;98446.94;;;11.10;90.71
51321;BME280;38732;49.556;6.286;2023-03-26T05:36:26;98427.25;;;11.04;91.88
51321;BME280;38732;49.556;6.286;2023-03-26T05:38:55;98421.09;;;11.10;90.68
51321;BME280;38732;49.556;6.286;2023-03-26T05:41:23;98407.34;;;11.09;91.84
51321;BME280;38732;49.556;6.286;2023-03-26T05:43:51;98399.59;;;11.08;92.21
51321;BME280;38732;49.556;6.286;2023-03-26T05:46:19;98384.91;;;11.11;92.17
51321;BME280;38732;49.556;6.286;2023-03-26T05:48:48;98380.59;;;11.12;91.87
51321;BME280;38732;49.556;6.286;2023-03-26T05:51:16;98368.66;;;11.05;92.74
51321;BME280;38732;49.556;6.286;2023-03-26T05:53:45;98361.75;;;11.05;91.84
51321;BME280;38732;49.556;6.286;2023-03-26T05:56:13;98359.31;;;10.99;91.43
51321;BME280;38732;49.556;6.286;2023-03-26T05:58:41;98359.22;;;11.04;90.80
51321;BME280;38732;49.556;6.286;2023-03-26T06:01:12;98349.75;;;11.04;90.35
51321;BME280;38732;49.556;6.286;2023-03-26T06:03:41;98340.25;;;11.05;90.24
51321;BME280;38732;49.556;6.286;2023-03-26T06:06:13;98330.56;;;11.16;89.71
51321;BME280;38732;49.556;6.286;2023-03-26T06:08:42;98319.63;;;11.03;89.91
51321;BME280;38732;49.556;6.286;2023-03-26T06:11:11;98317.03;;;11.03;89.98
51321;BME280;38732;49.556;6.286;2023-03-26T06:13:40;98312.75;;;11.02;90.98
51321;BME280;38732;49.556;6.286;2023-03-26T06:16:09;98319.53;;;11.08;89.78
51321;BME280;38732;49.556;6.286;2023-03-26T06:18:38;98313.50;;;11.07;89.31
51321;BME280;38732;49.556;6.286;2023-03-26T06:21:06;98303.16;;;11.09;91.05
51321;BME280;38732;49.556;6.286;2023-03-26T06:23:35;98297.16;;;11.07;91.08
51321;BME280;38732;49.556;6.286;2023-03-26T06:26:03;98302.28;;;11.08;91.25
51321;BME280;38732;49.556;6.286;2023-03-26T06:28:31;98302.44;;;11.00;91.14
51321;BME280;38732;49.556;6.286;2023-03-26T06:31:00;98300.69;;;11.02;91.77
51321;BME280;38732;49.556;6.286;2023-03-26T06:33:28;98288.53;;;11.08;90.73
51321;BME280;38732;49.556;6.286;2023-03-26T06:35:56;98294.59;;;11.05;92.21
51321;BME280;38732;49.556;6.286;2023-03-26T06:38:25;98293.84;;;11.01;91.33
51321;BME280;38732;49.556;6.286;2023-03-26T06:40:53;98292.09;;;11.02;91.23
51321;BME280;38732;49.556;6.286;2023-03-26T06:43:21;98285.28;;;10.98;92.56
51321;BME280;38732;49.556;6.286;2023-03-26T06:45:50;98285.94;;;11.08;93.01
51321;BME280;38732;49.556;6.286;2023-03-26T06:48:18;98272.19;;;11.07;93.31
51321;BME280;38732;49.556;6.286;2023-03-26T06:50:47;98280.03;;;11.02;93.86
51321;BME280;38732;49.556;6.286;2023-03-26T06:53:15;98276.59;;;11.02;93.35
51321;BME280;38732;49.556;6.286;2023-03-26T06:55:43;98285.13;;;11.06;93.63
51321;BME280;38732;49.556;6.286;2023-03-26T06:58:11;98274.75;;;11.07;93.23
51321;BME280;38732;49.556;6.286;2023-03-26T07:00:40;98262.75;;;11.05;92.79
51321;BME280;38732;49.556;6.286;2023-03-26T07:03:08;98268.81;;;10.62;96.59
51321;BME280;38732;49.556;6.286;2023-03-26T07:05:37;98261.03;;;11.05;94.24
51321;BME280;38732;49.556;6.286;2023-03-26T07:08:07;98260.03;;;11.12;95.41
51321;BME280;38732;49.556;6.286;2023-03-26T07:10:35;98259.34;;;11.02;96.54
51321;BME280;38732;49.556;6.286;2023-03-26T07:13:03;98250.91;;;10.96;96.89
51321;BME280;38732;49.556;6.286;2023-03-26T07:15:32;98251.97;;;11.26;97.53
51321;BME280;38732;49.556;6.286;2023-03-26T07:18:00;98247.28;;;11.43;97.09
51321;BME280;38732;49.556;6.286;2023-03-26T07:20:29;98240.16;;;11.53;96.48
51321;BME280;38732;49.556;6.286;2023-03-26T07:22:57;98237.69;;;11.49;94.64
51321;BME280;38732;49.556;6.286;2023-03-26T07:25:26;98237.44;;;11.58;94.19
51321;BME280;38732;49.556;6.286;2023-03-26T07:28:12;98228.16;;;11.51;94.71
51321;BME280;38732;49.556;6.286;2023-03-26T07:30:58;98227.91;;;11.60;95.46
51321;BME280;38732;49.556;6.286;2023-03-26T07:33:53;98232.09;;;11.28;99.38
51321;BME280;38732;49.556;6.286;2023-03-26T07:36:33;98223.47;;;11.65;97.45
51321;BME280;38732;49.556;6.286;2023-03-26T07:39:21;98230.28;;;11.69;97.60
51321;BME280;38732;49.556;6.286;2023-03-26T07:47:32;98220.06;;;11.27;99.74
51321;BME280;38732;49.556;6.286;2023-03-26T07:50:02;98209.72;;;11.63;98.84
51321;BME280;38732;49.556;6.286;2023-03-26T07:52:30;98217.88;;;11.48;100.00
51321;BME280;38732;49.556;6.286;2023-03-26T07:54:59;98209.88;;;11.58;100.00
51321;BME280;38732;49.556;6.286;2023-03-26T08:00:51;98206.22;;;11.30;100.00
51321;BME280;38732;49.556;6.286;2023-03-26T08:03:29;98208.38;;;10.72;100.00
51321;BME280;38732;49.556;6.286;2023-03-26T08:06:16;98205.00;;;10.68;100.00
51321;BME280;38732;49.556;6.286;2023-03-26T08:08:53;98205.97;;;11.40;100.00
51321;BME280;38732;49.556;6.286;2023-03-26T08:19:37;98232.44;;;9.79;100.00
51321;BME280;38732;49.556;6.286;2023-03-26T08:22:15;98205.88;;;10.67;100.00
51321;BME280;38732;49.556;6.286;2023-03-26T08:30:24;98217.47;;;10.00;100.00
51321;BME280;38732;49.556;6.286;2023-03-26T08:32:55;98231.84;;;9.63;100.00
51321;BME280;38732;49.556;6.286;2023-03-26T08:35:25;98225.38;;;8.79;100.00
51321;BME280;38732;49.556;6.286;2023-03-26T08:37:53;98229.16;;;9.69;100.00
51321;BME280;38732;49.556;6.286;2023-03-26T08:40:40;98221.03;;;9.41;100.00
51321;BME280;38732;49.556;6.286;2023-03-26T08:57:01;98235.53;;;9.48;100.00
51321;BME280;38732;49.556;6.286;2023-03-26T09:05:31;98243.66;;;9.77;100.00
51321;BME280;38732;49.556;6.286;2023-03-26T09:08:20;98250.75;;;9.64;100.00
51321;BME280;38732;49.556;6.286;2023-03-26T09:14:06;98277.06;;;9.25;100.00
51321;BME280;38732;49.556;6.286;2023-03-26T09:25:52;98272.22;;;9.63;100.00
51321;BME280;38732;49.556;6.286;2023-03-26T09:37:16;98265.81;;;10.38;100.00
51321;BME280;38732;49.556;6.286;2023-03-26T09:39:56;98283.16;;;9.77;100.00
51321;BME280;38732;49.556;6.286;2023-03-26T09:51:24;98259.53;;;10.03;100.00
51321;BME280;38732;49.556;6.286;2023-03-26T09:57:59;98269.91;;;10.00;98.65
51321;BME280;38732;49.556;6.286;2023-03-26T10:00:22;98265.00;;;10.81;97.62
51321;BME280;38732;49.556;6.286;2023-03-26T10:03:02;98272.84;;;10.30;99.28
51321;BME280;38732;49.556;6.286;2023-03-26T10:05:51;98275.50;;;9.72;96.71
51321;BME280;38732;49.556;6.286;2023-03-26T10:08:25;98277.31;;;9.66;99.22
51321;BME280;38732;49.556;6.286;2023-03-26T10:16:48;98279.22;;;9.56;93.45
51321;BME280;38732;49.556;6.286;2023-03-26T10:19:49;98276.78;;;9.47;95.40
51321;BME280;38732;49.556;6.286;2023-03-26T10:25:34;98273.50;;;10.41;91.92
51321;BME280;38732;49.556;6.286;2023-03-26T10:31:00;98274.44;;;10.35;88.60
51321;BME280;38732;49.556;6.286;2023-03-26T10:33:53;98277.72;;;10.45;89.33
51321;BME280;38732;49.556;6.286;2023-03-26T10:36:30;98267.63;;;10.33;88.73
51321;BME280;38732;49.556;6.286;2023-03-26T10:48:09;98272.78;;;10.78;88.94
51321;BME280;38732;49.556;6.286;2023-03-26T10:50:48;98287.25;;;10.42;86.41
51321;BME280;38732;49.556;6.286;2023-03-26T10:53:48;98287.22;;;10.43;87.58
51321;BME280;38732;49.556;6.286;2023-03-26T10:56:46;98280.81;;;10.16;88.06
51321;BME280;38732;49.556;6.286;2023-03-26T10:59:16;98266.81;;;10.31;88.47
51321;BME280;38732;49.556;6.286;2023-03-26T11:07:43;98279.81;;;10.23;89.47
51321;BME280;38732;49.556;6.286;2023-03-26T11:10:51;98276.25;;;10.33;89.45
51321;BME280;38732;49.556;6.286;2023-03-26T11:16:08;98276.88;;;10.43;89.38
51321;BME280;38732;49.556;6.286;2023-03-26T11:21:17;98278.72;;;11.23;84.75
51321;BME280;38732;49.556;6.286;2023-03-26T11:24:31;98271.09;;;11.17;83.38
51321;BME280;38732;49.556;6.286;2023-03-26T11:27:16;98255.78;;;11.08;83.78
51321;BME280;38732;49.556;6.286;2023-03-26T11:32:50;98266.88;;;11.90;77.78
51321;BME280;38732;49.556;6.286;2023-03-26T11:35:32;98271.56;;;11.35;78.35
51321;BME280;38732;49.556;6.286;2023-03-26T11:38:15;98263.06;;;11.69;80.26
51321;BME280;38732;49.556;6.286;2023-03-26T11:40:45;98285.06;;;10.67;81.86
51321;BME280;38732;49.556;6.286;2023-03-26T11:43:14;98261.34;;;11.30;81.52
51321;BME280;38732;49.556;6.286;2023-03-26T11:45:47;98249.66;;;10.73;81.41
51321;BME280;38732;49.556;6.286;2023-03-26T11:48:18;98268.19;;;10.92;84.48
51321;BME280;38732;49.556;6.286;2023-03-26T11:50:56;98265.78;;;10.41;90.56
51321;BME280;38732;49.556;6.286;2023-03-26T11:53:30;98259.81;;;10.38;94.74
51321;BME280;38732;49.556;6.286;2023-03-26T11:56:04;98270.66;;;9.54;95.97
51321;BME280;38732;49.556;6.286;2023-03-26T11:58:39;98278.47;;;9.48;98.35
51321;BME280;38732;49.556;6.286;2023-03-26T12:01:19;98280.75;;;9.07;100.00
51321;BME280;38732;49.556;6.286;2023-03-26T12:04:04;98269.25;;;9.89;100.00
51321;BME280;38732;49.556;6.286;2023-03-26T12:06:38;98267.78;;;10.70;100.00
51321;BME280;38732;49.556;6.286;2023-03-26T12:09:16;98261.66;;;10.76;100.00
51321;BME280;38732;49.556;6.286;2023-03-26T12:11:46;98281.72;;;10.13;100.00
51321;BME280;38732;49.556;6.286;2023-03-26T12:14:21;98280.63;;;10.28;100.00
51321;BME280;38732;49.556;6.286;2023-03-26T12:17:06;98279.66;;;10.79;99.26
51321;BME280;38732;49.556;6.286;2023-03-26T12:19:43;98268.44;;;10.80;100.00
51321;BME280;38732;49.556;6.286;2023-03-26T12:22:31;98292.00;;;9.62;100.00
51321;BME280;38732;49.556;6.286;2023-03-26T12:25:13;98268.50;;;9.81;100.00
51321;BME280;38732;49.556;6.286;2023-03-26T12:27:50;98258.34;;;11.49;100.00
51321;BME280;38732;49.556;6.286;2023-03-26T12:30:26;98257.63;;;11.78;92.86
51321;BME280;38732;49.556;6.286;2023-03-26T12:32:56;98257.09;;;12.66;87.30
51321;BME280;38732;49.556;6.286;2023-03-26T12:35:29;98232.59;;;15.35;70.53
51321;BME280;38732;49.556;6.286;2023-03-26T12:38:14;98224.34;;;16.50;61.20
51321;BME280;38732;49.556;6.286;2023-03-26T12:40:42;98228.75;;;17.08;59.65
51321;BME280;38732;49.556;6.286;2023-03-26T12:43:24;98227.75;;;16.91;60.90
51321;BME280;38732;49.556;6.286;2023-03-26T12:45:55;98224.19;;;18.69;55.57
51321;BME280;38732;49.556;6.286;2023-03-26T12:48:24;98222.53;;;16.91;57.14
51321;BME280;38732;49.556;6.286;2023-03-26T12:56:42;98212.63;;;16.39;59.55
51321;BME280;38732;49.556;6.286;2023-03-26T12:59:21;98205.00;;;17.31;55.24
51321;BME280;38732;49.556;6.286;2023-03-26T13:02:21;98207.78;;;15.26;55.96
51321;BME280;38732;49.556;6.286;2023-03-26T13:04:51;98201.63;;;14.35;62.58
51321;BME280;38732;49.556;6.286;2023-03-26T13:07:36;98190.53;;;15.24;59.56
51321;BME280;38732;49.556;6.286;2023-03-26T13:10:24;98179.31;;;17.41;52.28
51321;BME280;38732;49.556;6.286;2023-03-26T13:16:21;98187.63;;;15.09;54.90
51321;BME280;38732;49.556;6.286;2023-03-26T13:18:56;98189.59;;;15.47;51.64
51321;BME280;38732;49.556;6.286;2023-03-26T13:27:04;98206.75;;;13.05;64.66
51321;BME280;38732;49.556;6.286;2023-03-26T13:29:45;98226.63;;;12.45;71.03
51321;BME280;38732;49.556;6.286;2023-03-26T13:32:35;98302.81;;;11.24;80.99
51321;BME280;38732;49.556;6.286;2023-03-26T13:38:52;98251.34;;;10.74;95.19
51321;BME280;38732;49.556;6.286;2023-03-26T13:41:52;98263.56;;;9.11;100.00
51321;BME280;38732;49.556;6.286;2023-03-26T13:47:18;98238.94;;;10.92;98.08
51321;BME280;38732;49.556;6.286;2023-03-26T13:49:56;98249.97;;;12.11;94.69
51321;BME280;38732;49.556;6.286;2023-03-26T13:52:33;98240.50;;;12.42;93.98
51321;BME280;38732;49.556;6.286;2023-03-26T13:58:15;98229.81;;;14.71;78.48
51321;BME280;38732;49.556;6.286;2023-03-26T14:01:40;98220.59;;;14.37;76.53
51321;BME280;38732;49.556;6.286;2023-03-26T14:03:53;98248.28;;;14.63;73.55
51321;BME280;38732;49.556;6.286;2023-03-26T14:09:57;98311.34;;;11.29;87.51
51321;BME280;38732;49.556;6.286;2023-03-26T14:15:10;98321.47;;;10.02;99.37
51321;BME280;38732;49.556;6.286;2023-03-26T14:20:54;98285.44;;;10.47;100.00
51321;BME280;38732;49.556;6.286;2023-03-26T14:23:41;98286.44;;;11.25;92.55
51321;BME280;38732;49.556;6.286;2023-03-26T14:26:24;98291.53;;;10.43;99.34
51321;BME280;38732;49.556;6.286;2023-03-26T14:29:20;98264.66;;;11.37;99.27
51321;BME280;38732;49.556;6.286;2023-03-26T14:32:13;98275.22;;;10.41;100.00
51321;BME280;38732;49.556;6.286;2023-03-26T14:37:54;98274.97;;;10.56;100.00
51321;BME280;38732;49.556;6.286;2023-03-26T14:40:29;98269.34;;;10.79;100.00
51321;BME280;38732;49.556;6.286;2023-03-26T14:45:57;98267.94;;;11.03;100.00
51321;BME280;38732;49.556;6.286;2023-03-26T14:54:08;98274.50;;;10.79;100.00
51321;BME280;38732;49.556;6.286;2023-03-26T15:28:59;98340.97;;;11.92;96.47
51321;BME280;38732;49.556;6.286;2023-03-26T15:31:37;98362.59;;;10.62;100.00
51321;BME280;38732;49.556;6.286;2023-03-26T15:34:15;98334.94;;;11.12;98.21
51321;BME280;38732;49.556;6.286;2023-03-26T15:36:58;98326.06;;;10.84;100.00
51321;BME280;38732;49.556;6.286;2023-03-26T15:42:40;98316.13;;;10.61;100.00
51321;BME280;38732;49.556;6.286;2023-03-26T15:48:05;98312.78;;;10.57;98.54
51321;BME280;38732;49.556;6.286;2023-03-26T16:01:58;98306.47;;;10.73;95.73
51321;BME280;38732;49.556;6.286;2023-03-26T16:15:29;98337.69;;;10.07;97.83
51321;BME280;38732;49.556;6.286;2023-03-26T16:18:15;98329.25;;;9.97;94.85
51321;BME280;38732;49.556;6.286;2023-03-26T16:20:49;98326.16;;;11.21;93.80
51321;BME280;38732;49.556;6.286;2023-03-26T16:23:32;98326.66;;;11.37;89.40
51321;BME280;38732;49.556;6.286;2023-03-26T16:28:36;98329.25;;;12.13;85.11
51321;BME280;38732;49.556;6.286;2023-03-26T16:31:29;98326.34;;;11.91;86.34
51321;BME280;38732;49.556;6.286;2023-03-26T16:36:42;98329.56;;;10.78;92.83
51321;BME280;38732;49.556;6.286;2023-03-26T16:39:22;98323.19;;;10.97;92.04
51321;BME280;38732;49.556;6.286;2023-03-26T16:42:20;98321.50;;;11.76;87.82
51321;BME280;38732;49.556;6.286;2023-03-26T16:45:07;98320.91;;;11.24;92.86
51321;BME280;38732;49.556;6.286;2023-03-26T17:01:57;98329.53;;;12.35;84.48
51321;BME280;38732;49.556;6.286;2023-03-26T17:04:29;98334.59;;;12.40;81.17
51321;BME280;38732;49.556;6.286;2023-03-26T17:09:50;98343.88;;;11.77;85.39
51321;BME280;38732;49.556;6.286;2023-03-26T17:18:02;98362.25;;;11.64;87.76
51321;BME280;38732;49.556;6.286;2023-03-26T17:20:41;98372.38;;;12.13;86.57
51321;BME280;38732;49.556;6.286;2023-03-26T17:23:39;98370.59;;;12.16;83.09
51321;BME280;38732;49.556;6.286;2023-03-26T17:32:05;98388.50;;;11.02;88.81
51321;BME280;38732;49.556;6.286;2023-03-26T17:37:10;98388.47;;;11.88;83.90
51321;BME280;38732;49.556;6.286;2023-03-26T17:45:13;98389.63;;;12.14;84.17
51321;BME280;38732;49.556;6.286;2023-03-26T17:48:07;98409.09;;;10.59;95.01
51321;BME280;38732;49.556;6.286;2023-03-26T17:50:52;98410.09;;;11.84;86.22
51321;BME280;38732;49.556;6.286;2023-03-26T17:53:24;98422.03;;;10.00;90.82
51321;BME280;38732;49.556;6.286;2023-03-26T17:55:59;98419.50;;;11.02;93.63
51321;BME280;38732;49.556;6.286;2023-03-26T17:58:34;98426.38;;;11.49;88.62
51321;BME280;38732;49.556;6.286;2023-03-26T18:03:57;98441.66;;;9.48;99.87
51321;BME280;38732;49.556;6.286;2023-03-26T18:12:33;98437.34;;;11.16;90.60
51321;BME280;38732;49.556;6.286;2023-03-26T18:15:28;98448.81;;;11.01;90.57